• Join FlightAware (Why Join?)
  • Login
  • US Flag 
11:58PM EDT


 

Airport Tracker/Info


-or-


 

Live Flight TrackerFlight Track Log ✈ UPS219 ✈ 26-Apr-2013 ✈ KPHL - LFPG / CDG

Flight Track Log - Related Links

Times and Time Zones

All times are in EDT time to prevent confusion due to time zone crossing. See the UPS219 flight status page for this flight to view local times or setup timezone preferences in your user account.

Time Position Orientation Groundspeed Altitude Reporting Facility
EDT Latitude Longitude Course Direction KTS MPH feet Rate Location/Type
09:31AM 39.8600 -75.2780 180° South 180 207 300  Level FlightAware
09:31AM 39.8550 -75.2880 237° Southwest 183 211 900 4,500 Climbing FlightAware
09:31AM 39.8475 -75.2958 219° Southwest 183 211 1,500 2,820 Climbing FlightAware ADS-B
09:31AM 39.8359 -75.3073 217° Southwest 194 223 2,000 1,680 Climbing FlightAware ADS-B
09:32AM 39.8237 -75.3185 215° Southwest 217 250 2,400 1,380 Climbing FlightAware ADS-B
09:32AM 39.8108 -75.3310 217° Southwest 236 272 2,700 2,100 Climbing FlightAware ADS-B
09:32AM 39.7972 -75.3447 218° Southwest 236 272 3,500 2,160 Climbing FlightAware ADS-B
09:32AM 39.7843 -75.3556 213° Southwest 255 293 3,800 1,380 Climbing FlightAware ADS-B
09:32AM 39.7810 -75.3580 209° Southwest 260 299 3,900 1,680 Climbing FlightAware ADS-B
09:32AM 39.7765 -75.3605 203° Southwest 264 304 4,000 2,220 Climbing FlightAware ADS-B
09:32AM 39.7719 -75.3624 198° South 266 306 4,200 3,000 Climbing FlightAware ADS-B
09:33AM 39.7664 -75.3638 191° South 268 308 4,400 3,240 Climbing FlightAware ADS-B
09:33AM 39.7581 -75.3642 182° South 270 311 4,800 3,240 Climbing FlightAware ADS-B
09:33AM 39.7526 -75.3636 175° South 271 312 5,000 3,000 Climbing FlightAware ADS-B
09:33AM 39.7481 -75.3627 171° South 273 314 5,200 2,640 Climbing FlightAware ADS-B
09:33AM 39.7422 -75.3606 165° South 276 318 5,400 2,400 Climbing FlightAware ADS-B
09:33AM 39.7361 -75.3574 158° South 278 320 5,600 2,460 Climbing FlightAware ADS-B
09:33AM 39.7283 -75.3500 144° Southeast 282 325 5,900 2,280 Climbing FlightAware ADS-B
09:33AM 39.7228 -75.3428 135° Southeast 284 327 6,100 2,400 Climbing FlightAware ADS-B
09:33AM 39.7198 -75.3388 134° Southeast 285 328 6,300 2,640 Climbing FlightAware ADS-B
09:33AM 39.7164 -75.3315 121° Southeast 286 329 6,500 2,220 Climbing FlightAware ADS-B
09:33AM 39.7148 -75.3268 114° Southeast 288 331 6,600 2,220 Climbing FlightAware ADS-B
09:33AM 39.7129 -75.3186 107° East 291 335 6,800 3,000 Climbing FlightAware ADS-B
09:34AM 39.7117 -75.3082 99° East 292 336 7,100 2,640 Climbing FlightAware ADS-B
09:34AM 39.7116 -75.3028 91° East 291 335 7,200 2,640 Climbing FlightAware ADS-B
09:34AM 39.7123 -75.2924 85° East 292 336 7,500 3,240 Climbing FlightAware ADS-B
09:34AM 39.7140 -75.2838 76° East 292 336 7,800 2,160 Climbing FlightAware ADS-B
09:34AM 39.7187 -75.2562 78° East 296 341 8,300 2,220 Climbing FlightAware ADS-B
09:34AM 39.7218 -75.2349 79° East 300 345 8,800 2,220 Climbing FlightAware ADS-B
09:34AM 39.7257 -75.2064 80° East 304 350 9,300 1,980 Climbing FlightAware ADS-B
09:35AM 39.7305 -75.1758 78° East 308 354 9,900 1,440 Climbing FlightAware ADS-B
09:35AM 39.7394 -75.1142 79° East 339 390 10,500 1,080 Climbing FlightAware ADS-B
09:36AM 39.7491 -75.0447 80° East 369 425 11,100 1,020 Climbing FlightAware ADS-B
09:36AM 39.7585 -74.9763 80° East 394 453 11,600 480 Climbing FlightAware ADS-B
09:37AM 39.7681 -74.9051 80° East 386 444 11,600 240 Level FlightAware ADS-B
09:37AM 39.7775 -74.8361 80° East 393 452 11,900 1,620 Climbing FlightAware ADS-B
09:38AM 39.7879 -74.7599 80° East 407 468 13,300 2,580 Climbing FlightAware ADS-B
09:38AM 39.7963 -74.6862 82° East 418 481 14,600 2,520 Climbing FlightAware ADS-B
09:39AM 39.8031 -74.6071 84° East 431 496 15,900 2,520 Climbing FlightAware ADS-B
09:39AM 39.8099 -74.5262 84° East 439 505 17,300 2,460 Climbing FlightAware ADS-B
09:40AM 39.8157 -74.4437 85° East 452 520 18,500 2,340 Climbing FlightAware ADS-B
09:40AM 39.8175 -74.3586 88° East 461 531 19,700 2,340 Climbing FlightAware ADS-B
09:41AM 39.8175 -74.2719 90° East 468 539 20,900 2,160 Climbing FlightAware ADS-B
09:41AM 39.8178 -74.2122 90° East 472 543 21,600 1,680 Climbing FlightAware ADS-B
09:42AM 39.8243 -74.1735 78° East 469 540 21,900 1,680 Climbing FlightAware ADS-B
09:42AM 39.8489 -74.0918 69° East 470 541 22,900 1,380 Climbing FlightAware ADS-B
09:42AM 39.8609 -74.0522 68° East 477 549 23,000 120 Climbing FlightAware ADS-B
09:43AM 39.8844 -73.9872 65° Northeast 475 547 23,000  Level FlightAware ADS-B
09:43AM 39.9178 -73.9001 63° Northeast 475 547 23,000  Level FlightAware ADS-B
09:44AM 39.9522 -73.8100 64° Northeast 477 549 23,000  Level FlightAware ADS-B
09:44AM 39.9814 -73.7293 65° Northeast 480 552 23,000 420 Level FlightAware ADS-B
09:45AM 40.0130 -73.6460 64° Northeast 481 554 23,500 1,680 Climbing FlightAware ADS-B
09:46AM 40.0504 -73.5441 64° Northeast 482 555 25,000 2,100 Climbing FlightAware ADS-B
09:46AM 40.0852 -73.4490 64° Northeast 487 560 26,100 1,980 Climbing FlightAware ADS-B
09:47AM 40.1384 -73.3052 64° Northeast 488 562 28,000 2,040 Climbing FlightAware ADS-B
09:48AM 40.1860 -73.1760 64° Northeast 482 555 29,800 1,980 Climbing FlightAware
09:49AM 40.2285 -73.0607 64° Northeast 480 552 31,100 1,680 Climbing FlightAware ADS-B
09:49AM 40.2603 -72.9743 64° Northeast 482 555 31,900 1,380 Climbing FlightAware ADS-B
09:50AM 40.3017 -72.8607 64° Northeast 484 557 32,900 720 Climbing FlightAware ADS-B
09:51AM 40.3450 -72.7420 64° Northeast 484 557 33,000 60 Climbing FlightAware
09:51AM 40.3872 -72.6246 65° Northeast 486 559 33,000  Level FlightAware ADS-B
09:52AM 40.4165 -72.5417 65° Northeast 486 559 33,000  Level FlightAware ADS-B
09:52AM 40.4488 -72.4515 65° Northeast 485 558 33,000  Level FlightAware ADS-B
09:54AM 40.5080 -72.2860 65° Northeast 484 557 33,000  Level FlightAware
09:54AM 40.5331 -72.2172 64° Northeast 484 557 33,000  Level FlightAware ADS-B
09:55AM 40.5810 -72.0810 65° Northeast 484 557 33,000  Level FlightAware
09:56AM 40.6250 -71.9560 65° Northeast 484 557 33,000  Level FlightAware
09:56AM 40.6600 -71.8570 65° Northeast 484 557 33,000  Level FlightAware
09:57AM 40.7050 -71.7280 65° Northeast 485 558 33,000  Level FlightAware
09:58AM 40.7340 -71.6480 64° Northeast 487 560 33,000  Level FlightAware
09:58AM 40.7750 -71.5280 66° East 489 563 33,000  Level FlightAware
09:59AM 40.8240 -71.3870 65° Northeast 493 567 33,000  Level FlightAware
10:00AM 40.8610 -71.2800 65° Northeast 492 566 33,000  Level FlightAware
10:00AM 40.8910 -71.1920 66° East 490 564 33,000  Level FlightAware
10:01AM 40.9720 -71.0570 51° Northeast 488 562 33,000  Level FlightAware
10:02AM 41.0090 -71.0380 21° North 493 567 33,000  Level FlightAware
10:02AM 41.1020 -70.9510 35° Northeast 495 570 33,000  Level FlightAware
10:03AM 41.1730 -70.8870 34° Northeast 491 565 33,000  Level FlightAware
10:04AM 41.2520 -70.8140 35° Northeast 492 566 33,000  Level FlightAware
10:04AM 41.3400 -70.7310 35° Northeast 493 567 33,000  Level FlightAware
10:05AM 41.4190 -70.6580 35° Northeast 495 570 33,000  Level FlightAware
10:06AM 41.4970 -70.5850 35° Northeast 496 571 33,000  Level FlightAware
10:07AM 41.5790 -70.5080 35° Northeast 497 572 33,000  Level FlightAware
10:07AM 41.6610 -70.4300 35° Northeast 499 574 33,000  Level FlightAware
10:09AM 41.8220 -70.2770 35° Northeast 498 573 33,000  Level FlightAware
10:09AM 41.9080 -70.1950 35° Northeast 500 575 33,000  Level FlightAware
10:10AM 41.9940 -70.1130 35° Northeast 501 577 33,000  Level FlightAware
10:11AM 42.0710 -70.0400 35° Northeast 500 575 33,000  Level FlightAware
10:12AM 42.1440 -69.9700 35° Northeast 501 577 33,000  Level FlightAware
10:12AM 42.2330 -69.8830 36° Northeast 503 579 33,000  Level FlightAware
10:13AM 42.3090 -69.8110 35° Northeast 503 579 33,000  Level FlightAware
10:14AM 42.3970 -69.7250 36° Northeast 512 589 33,000  Level FlightAware
10:14AM 42.4760 -69.6480 36° Northeast 513 590 33,000  Level FlightAware
10:15AM 42.5500 -69.5750 36° Northeast 514 592 33,000  Level FlightAware
10:16AM 42.6380 -69.4890 36° Northeast 517 595 33,000  Level FlightAware
10:16AM 42.7150 -69.4130 36° Northeast 518 596 33,000  Level FlightAware
10:17AM 42.8030 -69.3260 36° Northeast 521 600 33,000  Level FlightAware
10:18AM 42.8760 -69.2550 35° Northeast 522 601 33,000  Level FlightAware
10:19AM 42.9590 -69.1710 37° Northeast 523 602 33,000  Level FlightAware
10:19AM 43.0660 -69.0660 36° Northeast 518 596 33,000  Level FlightAware
10:20AM 43.1830 -68.9480 36° Northeast 520 598 33,000  Level FlightAware
10:21AM 43.2630 -68.8670 36° Northeast 520 598 33,000  Level FlightAware
10:22AM 43.3410 -68.7890 36° Northeast 522 601 33,000  Level FlightAware
10:22AM 43.4080 -68.7230 36° Northeast 522 601 33,000  Level FlightAware
10:23AM 43.4740 -68.6560 36° Northeast 522 601 33,000  Level FlightAware
10:25AM 43.7330 -68.3890 37° Northeast 528 608 33,000  Level FlightAware
10:26AM 43.7960 -68.3230 37° Northeast 528 608 33,000  Level FlightAware
10:26AM 43.8960 -68.2220 36° Northeast 536 617 33,000  Level FlightAware
10:27AM 43.9900 -68.1250 37° Northeast 538 619 33,000  Level FlightAware
10:28AM 44.0720 -68.0390 37° Northeast 538 619 33,000  Level FlightAware
10:29AM 44.1600 -67.9470 37° Northeast 532 612 33,000  Level FlightAware
10:29AM 44.2410 -67.8610 37° Northeast 532 612 33,000  Level FlightAware
10:30AM 44.3200 -67.7800 36° Northeast 532 612 33,000  Level FlightAware
10:31AM 44.4100 -67.6830 38° Northeast 533 613 33,000  Level FlightAware
10:32AM 44.5190 -67.5690 37° Northeast 533 613 33,000  Level FlightAware
10:33AM 44.6890 -67.3870 37° Northeast 541 623 33,000  Level FlightAware
10:34AM 44.7580 -67.3140 37° Northeast 535 616 33,000  Level FlightAware
10:34AM 44.8490 -67.2150 38° Northeast 535 616 33,000  Level FlightAware
10:35AM 44.9740 -67.0970 34° Northeast 546 628 33,000  Level FlightAware
10:36AM 45.0590 -67.0250 31° Northeast 546 628 33,000  Level FlightAware
10:37AM 45.1590 -66.9410 31° Northeast 547 629 33,000  Level FlightAware
10:38AM 45.2780 -66.8400 31° Northeast 541 623 33,000  Level FlightAware
10:39AM 45.4310 -66.7100 31° Northeast 544 626 33,000  Level FlightAware
10:40AM 45.6160 -66.5510 31° Northeast 545 627 33,000  Level FlightAware
10:41AM 45.7690 -66.4180 31° Northeast 545 627 33,000  Level FlightAware
10:43AM 45.9230 -66.2850 31° Northeast 547 629 33,000  Level FlightAware
10:44AM 46.0750 -66.1510 31° Northeast 546 628 33,000  Level FlightAware
10:45AM 46.1750 -66.0650 31° Northeast 546 628 33,000  Level FlightAware
10:45AM 46.2490 -66.0010 31° Northeast 546 628 33,000  Level FlightAware
10:46AM 46.3220 -65.9370 31° Northeast 546 628 33,000  Level FlightAware
10:47AM 46.4140 -65.8570 31° Northeast 546 628 33,000  Level FlightAware
10:48AM 46.4880 -65.7930 31° Northeast 546 628 33,000  Level FlightAware
10:48AM 46.5610 -65.7280 31° Northeast 546 628 33,000  Level FlightAware
10:49AM 46.6350 -65.6640 31° Northeast 546 628 33,000  Level FlightAware
10:50AM 46.7090 -65.5990 31° Northeast 546 628 33,000  Level FlightAware
10:50AM 46.7820 -65.5350 31° Northeast 546 628 33,000  Level FlightAware
10:51AM 46.8740 -65.4540 31° Northeast 546 628 33,000  Level FlightAware
10:52AM 46.9480 -65.3890 31° Northeast 546 628 33,000  Level FlightAware
10:52AM 47.0220 -65.3240 31° Northeast 546 628 33,000  Level FlightAware
10:53AM 47.0950 -65.2590 31° Northeast 546 628 33,000  Level FlightAware
10:54AM 47.1870 -65.1780 31° Northeast 546 628 33,000  Level FlightAware
10:54AM 47.4500 -64.8833 31° Northeast 560 644 33,000  Level Gander Center
10:55AM 47.5167 -64.8167 34° Northeast 560 644 33,000  Level Moncton Center
10:56AM 47.6500 -64.7000 31° Northeast 560 644 33,000  Level Moncton Center
10:57AM 47.7833 -64.5667 34° Northeast 560 644 33,000  Level Moncton Center
10:58AM 47.9167 -64.4500 30° Northeast 560 644 33,000  Level Moncton Center
10:59AM 48.0333 -64.3167 37° Northeast 560 644 33,000  Level Moncton Center
11:00AM 48.1667 -64.2000 30° Northeast 560 644 33,000  Level Moncton Center
11:01AM 48.3000 -64.0667 34° Northeast 560 644 33,000  Level Moncton Center
11:02AM 48.4333 -63.9500 30° Northeast 550 633 33,000  Level Moncton Center
11:03AM 48.5667 -63.8167 33° Northeast 550 633 33,000  Level Moncton Center
11:04AM 48.7000 -63.6833 33° Northeast 550 633 33,000  Level Moncton Center
11:04AM 48.7500 -63.6167 41° Northeast 540 621 33,000  Level Gander Center
11:05AM 48.8167 -63.5500 33° Northeast 560 644 33,000  Level Moncton Center
11:06AM 48.9500 -63.4333 30° Northeast 540 621 33,000  Level Moncton Center
11:06AM 49.0167 -63.3667 33° Northeast 540 621 33,000  Level Gander Center
11:07AM 49.1500 -63.2167 36° Northeast 550 633 33,000  Level Gander Center
11:08AM 49.2000 -63.2000 12° North 550 633 33,000  Level Moncton Center
11:09AM 49.3333 -63.0333 39° Northeast 540 621 33,000  Level Moncton Center
11:10AM 49.4500 -62.9333 29° Northeast 540 621 33,000  Level Moncton Center
11:11AM 49.5833 -62.8000 33° Northeast 540 621 33,000  Level Moncton Center
11:11AM 49.6500 -62.7333 33° Northeast 550 633 33,000  Level Gander Center
11:12AM 49.7000 -62.6667 41° Northeast 540 621 33,000  Level Moncton Center
11:13AM 49.8333 -62.5333 33° Northeast 550 633 33,000  Level Moncton Center
11:13AM 49.9000 -62.4500 39° Northeast 550 633 33,000  Level Gander Center
11:14AM 50.0333 -62.3167 33° Northeast 540 621 33,000  Level Gander Center
11:15AM 50.1500 -62.2000 33° Northeast 560 644 33,000  Level Gander Center
11:16AM 50.2000 -62.1167 47° Northeast 560 644 33,000  Level Moncton Center
11:17AM 50.3333 -61.9833 33° Northeast 550 633 33,000  Level Moncton Center
11:17AM 50.4000 -61.9167 33° Northeast 550 633 33,000  Level Gander Center
11:18AM 50.5167 -61.7833 36° Northeast 550 633 33,000  Level Gander Center
11:19AM 50.6500 -61.6500 32° Northeast 550 633 33,000  Level Gander Center
11:20AM 50.7167 -61.5667 38° Northeast 540 621 33,000  Level Moncton Center
11:21AM 50.8500 -61.4333 32° Northeast 550 633 33,000  Level Moncton Center
11:21AM 50.9167 -61.3667 32° Northeast 560 644 33,000  Level Gander Center
11:22AM 51.0333 -61.2333 36° Northeast 560 644 33,000  Level Gander Center
11:23AM 51.1667 -61.0667 38° Northeast 560 644 33,000  Level Gander Center
11:24AM 51.2833 -60.9333 36° Northeast 560 644 33,000  Level Gander Center
11:25AM 51.3500 -60.8667 32° Northeast 560 644 33,000  Level Moncton Center
11:26AM 51.4833 -60.7167 35° Northeast 560 644 33,000  Level Moncton Center
11:26AM 51.5500 -60.6333 38° Northeast 560 644 33,000  Level Gander Center
11:27AM 51.6000 -60.5667 40° Northeast 560 644 33,000  Level Moncton Center
11:28AM 51.7333 -60.4167 35° Northeast 560 644 33,000  Level Moncton Center
11:28AM 51.8000 -60.3333 38° Northeast 560 644 33,000 300 Level Gander Center
11:29AM 51.9167 -60.2000 35° Northeast 560 644 33,500 780 Climbing Gander Center
11:30AM 51.9833 -60.1000 43° Northeast 560 644 34,200 1,020 Climbing Moncton Center
11:31AM 52.1000 -59.9333 41° Northeast 560 644 35,000 480 Climbing Moncton Center
11:31AM 52.1500 -59.8333 51° Northeast 560 644 35,000  Level Gander Center
11:32AM 52.2833 -59.6667 37° Northeast 560 644 35,000  Level Gander Center
11:33AM 52.3833 -59.5000 45° Northeast 560 644 35,000  Level Gander Center
11:34AM 52.5000 -59.3000 46° Northeast 550 633 35,000  Level Gander Center
11:35AM 52.6167 -59.1667 35° Northeast 550 633 35,000  Level Gander Center
11:36AM 52.7167 -58.9667 50° Northeast 550 633 35,000  Level Gander Center
11:37AM 52.8333 -58.7833 43° Northeast 550 633 35,000  Level Gander Center
11:38AM 52.8833 -58.7167 39° Northeast 550 633 35,000  Level Moncton Center
11:39AM 53.0000 -58.5333 43° Northeast 550 633 35,000  Level Moncton Center
11:39AM 53.0667 -58.4500 37° Northeast 550 633 35,000  Level Gander Center
11:40AM 53.1000 -58.3500 61° Northeast 550 633 35,000  Level Moncton Center
11:40AM 53.1500 -58.2667 45° Northeast 550 633 35,000  Level Gander Center
11:41AM 53.2833 -58.1000 37° Northeast 550 633 35,000  Level Gander Center
11:42AM 53.3833 -57.9167 48° Northeast 550 633 35,000  Level Gander Center
11:43AM 53.4333 -57.8333 45° Northeast 550 633 35,000  Level Moncton Center
11:44AM 53.5333 -57.6333 50° Northeast 550 633 35,000  Level Moncton Center
11:44AM 53.6000 -57.5667 31° Northeast 550 633 35,000  Level Gander Center
11:45AM 53.7167 -57.3500 48° Northeast 560 644 35,000  Level Gander Center
11:46AM 53.8333 -57.1667 43° Northeast 550 633 35,000  Level Gander Center
11:47AM 53.9333 -57.0000 44° Northeast 550 633 35,000  Level Gander Center
11:48AM 54.0500 -56.8167 43° Northeast 560 644 35,000  Level Gander Center
11:49AM 54.1667 -56.6333 43° Northeast 550 633 35,000  Level Gander Center
11:50AM 54.2667 -56.4500 47° Northeast 560 644 35,000  Level Gander Center
11:51AM 54.3167 -56.3333 54° Northeast 560 644 35,000  Level Moncton Center
11:51AM 54.3833 -56.2500 36° Northeast 550 633 35,000  Level Gander Center
11:52AM 54.4833 -56.0500 49° Northeast 550 633 35,000  Level Gander Center
11:53AM 54.5833 -55.8500 49° Northeast 550 633 35,000  Level Gander Center
11:54AM 54.6500 -55.6500 60° Northeast 540 621 35,000  Level Gander Center
11:55AM 54.7333 -55.4000 60° Northeast 540 621 35,000  Level Gander Center
11:56AM 54.7833 -55.2000 66° East 530 610 35,000  Level Gander Center
11:57AM 54.8333 -54.9167 73° East 530 610 35,000  Level Gander Center
11:58AM 54.9000 -54.7167 60° Northeast 520 598 35,000  Level Gander Center
11:59AM 54.9500 -54.4667 71° East 530 610 35,000  Level Gander Center
12:00PM 55.0000 -54.2333 69° East 520 598 35,000  Level Gander Center
12:01PM 55.0500 -54.0167 68° East 520 598 35,000  Level Gander Center
12:02PM 55.1167 -53.8000 62° Northeast 520 598 35,000  Level Gander Center
12:03PM 55.1333 -53.6500 79° East 520 598 35,000  Level Gander Center
12:03PM 55.1667 -53.5500 60° Northeast 520 598 35,000  Level Gander Center
12:04PM 55.2167 -53.3333 68° East 520 598 35,000  Level Gander Center
12:05PM 55.2833 -53.0833 65° Northeast 520 598 35,000  Level Gander Center
12:06PM 55.3333 -52.8667 68° East 520 598 35,000  Level Gander Center
12:07PM 55.3833 -52.6167 71° East 520 598 35,000  Level Gander Center
12:08PM 55.4500 -52.4000 61° Northeast 520 598 35,000  Level Gander Center
12:09PM 55.4833 -52.2500 69° East 520 598 35,000  Level Gander Center
12:10PM 55.5333 -52.0000 70° East 520 598 35,000  Level Gander Center
12:10PM 55.5333 -51.9000 90° East 520 598 35,000  Level Gander Center
12:11PM 55.6000 -51.7667 48° Northeast 520 598 35,000  Level Gander Center
12:12PM 55.6500 -51.5500 68° East 520 598 35,000  Level Gander Center
12:12PM 55.6500 -51.4333 90° East 520 598 35,000  Level Gander Center
12:13PM 55.6667 -51.2833 79° East 520 598 35,000  Level Gander Center
12:14PM 55.7333 -51.0500 63° Northeast 540 621 35,000  Level Gander Center
12:14PM 55.7500 -50.9667 70° East 540 621 35,000  Level Gander Center
12:15PM 55.8000 -50.7333 69° East 540 621 35,000  Level Gander Center
12:18PM 55.9220 -50.2887 64° Northeast  Level FlightAware Approximate
12:25PM 56.3153 -48.7097 66° East  Level FlightAware Approximate
12:26PM 56.3692 -48.4810 67° East  Level FlightAware Approximate
12:27PM 56.4228 -48.2517 67° East  Level FlightAware Approximate
12:28PM 56.4759 -48.0218 67° East  Level FlightAware Approximate
12:29PM 56.5286 -47.7912 67° East  Level FlightAware Approximate
12:30PM 56.5808 -47.5600 68° East  Level FlightAware Approximate
12:31PM 56.6327 -47.3281 68° East  Level FlightAware Approximate
12:32PM 56.6839 -47.0956 68° East  Level FlightAware Approximate
12:33PM 56.7347 -46.8623 68° East  Level FlightAware Approximate
12:34PM 56.7851 -46.6284 68° East  Level FlightAware Approximate
12:35PM 56.8350 -46.3939 69° East  Level FlightAware Approximate
12:36PM 56.8844 -46.1588 69° East  Level FlightAware Approximate
12:37PM 56.9334 -45.9230 69° East  Level FlightAware Approximate
12:38PM 56.9820 -45.6866 69° East  Level FlightAware Approximate
12:39PM 57.0302 -45.4497 69° East  Level FlightAware Approximate
12:40PM 57.0778 -45.2121 70° East  Level FlightAware Approximate
12:41PM 57.1251 -44.9739 70° East  Level FlightAware Approximate
12:42PM 57.1718 -44.7351 70° East  Level FlightAware Approximate
12:43PM 57.2182 -44.4956 70° East  Level FlightAware Approximate
12:44PM 57.2634 -44.2552 71° East  Level FlightAware Approximate
12:45PM 57.3079 -44.0140 71° East  Level FlightAware Approximate
12:46PM 57.3519 -43.7723 71° East  Level FlightAware Approximate
12:47PM 57.3955 -43.5299 71° East  Level FlightAware Approximate
12:48PM 57.4389 -43.2872 71° East  Level FlightAware Approximate
12:49PM 57.4838 -43.0451 71° East  Level FlightAware Approximate
12:50PM 57.5283 -42.8025 71° East  Level FlightAware Approximate
12:51PM 57.5723 -42.5592 71° East  Level FlightAware Approximate
12:52PM 57.6159 -42.3154 71° East  Level FlightAware Approximate
12:53PM 57.6589 -42.0709 72° East  Level FlightAware Approximate
12:54PM 57.7013 -41.8259 72° East  Level FlightAware Approximate
12:55PM 57.7433 -41.5803 72° East  Level FlightAware Approximate
12:56PM 57.7849 -41.3341 72° East  Level FlightAware Approximate
12:57PM 57.8259 -41.0873 73° East  Level FlightAware Approximate
12:58PM 57.8665 -40.8400 73° East  Level FlightAware Approximate
12:59PM 57.9066 -40.5921 73° East  Level FlightAware Approximate
01:00PM 57.9462 -40.3437 73° East  Level FlightAware Approximate
01:01PM 57.9853 -40.0947 73° East  Level FlightAware Approximate
01:02PM 58.0062 -39.8392 86° East  Level FlightAware Approximate
01:03PM 58.0158 -39.5798 86° East  Level FlightAware Approximate
01:04PM 58.0249 -39.3203 86° East  Level FlightAware Approximate
01:05PM 58.0334 -39.0607 86° East  Level FlightAware Approximate
01:06PM 58.0415 -38.8009 87° East  Level FlightAware Approximate
01:07PM 58.0489 -38.5411 87° East  Level FlightAware Approximate
01:08PM 58.0559 -38.2811 87° East  Level FlightAware Approximate
01:09PM 58.0623 -38.0211 87° East  Level FlightAware Approximate
01:10PM 58.0682 -37.7609 87° East  Level FlightAware Approximate
01:11PM 58.0736 -37.5007 88° East  Level FlightAware Approximate
01:12PM 58.0784 -37.2404 88° East  Level FlightAware Approximate
01:13PM 58.0827 -36.9800 88° East  Level FlightAware Approximate
01:14PM 58.0865 -36.7196 88° East  Level FlightAware Approximate
01:15PM 58.0898 -36.4591 89° East  Level FlightAware Approximate
01:16PM 58.0925 -36.1986 89° East  Level FlightAware Approximate
01:17PM 58.0947 -35.9380 89° East  Level FlightAware Approximate
01:18PM 58.0963 -35.6774 89° East  Level FlightAware Approximate
01:19PM 58.0974 -35.4168 89° East  Level FlightAware Approximate
01:20PM 58.0980 -35.1562 90° East  Level FlightAware Approximate
01:21PM 58.0980 -34.8956 90° East  Level FlightAware Approximate
01:22PM 58.0976 -34.6349 90° East  Level FlightAware Approximate
01:23PM 58.0966 -34.3743 90° East  Level FlightAware Approximate
01:24PM 58.0950 -34.1137 91° East  Level FlightAware Approximate
01:25PM 58.0929 -33.8531 91° East  Level FlightAware Approximate
01:26PM 58.0903 -33.5926 91° East  Level FlightAware Approximate
01:27PM 58.0872 -33.3321 91° East  Level FlightAware Approximate
01:28PM 58.0835 -33.0717 91° East  Level FlightAware Approximate
01:29PM 58.0793 -32.8113 92° East  Level FlightAware Approximate
01:30PM 58.0746 -32.5510 92° East  Level FlightAware Approximate
01:31PM 58.0693 -32.2907 92° East  Level FlightAware Approximate
01:32PM 58.0635 -32.0305 92° East  Level FlightAware Approximate
01:33PM 58.0572 -31.7705 93° East  Level FlightAware Approximate
01:34PM 58.0504 -31.5105 93° East  Level FlightAware Approximate
01:35PM 58.0430 -31.2506 93° East  Level FlightAware Approximate
01:36PM 58.0351 -30.9908 93° East  Level FlightAware Approximate
01:37PM 58.0266 -30.7312 93° East  Level FlightAware Approximate
01:38PM 58.0177 -30.4717 94° East  Level FlightAware Approximate
01:39PM 58.0082 -30.2123 94° East  Level FlightAware Approximate
01:40PM 57.9972 -29.9532 96° East  Level FlightAware Approximate
01:41PM 57.9818 -29.6950 96° East  Level FlightAware Approximate
01:42PM 57.9658 -29.4370 97° East  Level FlightAware Approximate
01:43PM 57.9493 -29.1793 97° East  Level FlightAware Approximate
01:44PM 57.9323 -28.9218 97° East  Level FlightAware Approximate
01:45PM 57.9147 -28.6645 97° East  Level FlightAware Approximate
01:46PM 57.8966 -28.4075 97° East  Level FlightAware Approximate
01:47PM 57.8781 -28.1508 98° East  Level FlightAware Approximate
01:48PM 57.8590 -27.8943 98° East  Level FlightAware Approximate
01:49PM 57.8393 -27.6381 98° East  Level FlightAware Approximate
01:50PM 57.8192 -27.3822 98° East  Level FlightAware Approximate
01:51PM 57.7986 -27.1266 99° East  Level FlightAware Approximate
01:52PM 57.7774 -26.8713 99° East  Level FlightAware Approximate
01:53PM 57.7557 -26.6163 99° East  Level FlightAware Approximate
01:54PM 57.7335 -26.3616 99° East  Level FlightAware Approximate
01:55PM 57.7108 -26.1072 99° East  Level FlightAware Approximate
01:56PM 57.6876 -25.8531 100° East  Level FlightAware Approximate
01:57PM 57.6639 -25.5994 100° East  Level FlightAware Approximate
01:58PM 57.6397 -25.3460 100° East  Level FlightAware Approximate
01:59PM 57.6149 -25.0929 100° East  Level FlightAware Approximate
02:00PM 57.5897 -24.8402 100° East  Level FlightAware Approximate
02:01PM 57.5640 -24.5879 101° East  Level FlightAware Approximate
02:02PM 57.5377 -24.3359 101° East  Level FlightAware Approximate
02:03PM 57.5110 -24.0842 101° East  Level FlightAware Approximate
02:04PM 57.4838 -23.8330 101° East  Level FlightAware Approximate
02:05PM 57.4560 -23.5821 102° East  Level FlightAware Approximate
02:06PM 57.4278 -23.3316 102° East  Level FlightAware Approximate
02:07PM 57.3991 -23.0815 102° East  Level FlightAware Approximate
02:08PM 57.3698 -22.8318 102° East  Level FlightAware Approximate
02:09PM 57.3401 -22.5824 102° East  Level FlightAware Approximate
02:10PM 57.3099 -22.3335 103° East  Level FlightAware Approximate
02:11PM 57.2792 -22.0850 103° East  Level FlightAware Approximate
02:12PM 57.2480 -21.8370 103° East  Level FlightAware Approximate
02:13PM 57.2163 -21.5893 103° East  Level FlightAware Approximate
02:14PM 57.1842 -21.3421 103° East  Level FlightAware Approximate
02:15PM 57.1515 -21.0953 104° East  Level FlightAware Approximate
02:16PM 57.1184 -20.8489 104° East  Level FlightAware Approximate
02:17PM 57.0847 -20.6030 104° East  Level FlightAware Approximate
02:18PM 57.0506 -20.3575 104° East  Level FlightAware Approximate
02:19PM 57.0161 -20.1125 104° East  Level FlightAware Approximate
02:20PM 56.9731 -19.8727 111° Southeast  Level FlightAware Approximate
02:21PM 56.9229 -19.6376 111° Southeast  Level FlightAware Approximate
02:22PM 56.8722 -19.4030 111° Southeast  Level FlightAware Approximate
02:23PM 56.8212 -19.1691 112° Southeast  Level FlightAware Approximate
02:24PM 56.7696 -18.9359 112° Southeast  Level FlightAware Approximate
02:25PM 56.7177 -18.7033 112° Southeast  Level FlightAware Approximate
02:26PM 56.6653 -18.4713 112° Southeast  Level FlightAware Approximate
02:27PM 56.6125 -18.2400 112° Southeast  Level FlightAware Approximate
02:28PM 56.5593 -18.0093 113° Southeast  Level FlightAware Approximate
02:29PM 56.5056 -17.7793 113° Southeast  Level FlightAware Approximate
02:30PM 56.4515 -17.5499 113° Southeast  Level FlightAware Approximate
02:31PM 56.3970 -17.3212 113° Southeast  Level FlightAware Approximate
02:32PM 56.3421 -17.0931 113° Southeast  Level FlightAware Approximate
02:33PM 56.2867 -16.8657 114° Southeast  Level FlightAware Approximate
02:34PM 56.2310 -16.6390 114° Southeast  Level FlightAware Approximate
02:35PM 56.1748 -16.4129 114° Southeast  Level FlightAware Approximate
02:36PM 56.1182 -16.1875 114° Southeast  Level FlightAware Approximate
02:37PM 56.0612 -15.9628 114° Southeast  Level FlightAware Approximate
02:38PM 56.0038 -15.7387 115° Southeast  Level FlightAware Approximate
02:39PM 55.9460 -15.5152 115° Southeast  Level FlightAware Approximate
02:40PM 55.8878 -15.2925 115° Southeast  Level FlightAware Approximate
02:41PM 55.8292 -15.0704 115° Southeast  Level FlightAware Approximate
02:42PM 55.7702 -14.8490 115° Southeast  Level FlightAware Approximate
02:43PM 55.7108 -14.6283 115° Southeast  Level FlightAware Approximate
02:44PM 55.6510 -14.4082 116° Southeast  Level FlightAware Approximate
02:45PM 55.5908 -14.1888 116° Southeast  Level FlightAware Approximate
02:46PM 55.5302 -13.9701 116° Southeast  Level FlightAware Approximate
02:47PM 55.4692 -13.7520 116° Southeast  Level FlightAware Approximate
02:48PM 55.4079 -13.5347 116° Southeast  Level FlightAware Approximate
02:49PM 55.3461 -13.3180 117° Southeast  Level FlightAware Approximate
02:50PM 55.2840 -13.1020 117° Southeast  Level FlightAware Approximate
02:50PM 55.3450 -13.0730 117° Southeast 520 598 35,000  Level FlightAware
02:51PM 55.2215 -12.8866 117° Southeast  Level FlightAware Approximate
02:51PM 55.2870 -12.9090 122° Southeast 519 597 35,000  Level FlightAware
02:51PM 55.2300 -12.7490 122° Southeast 517 595 35,000  Level FlightAware
02:52PM 55.1790 -12.6070 122° Southeast 515 593 35,000  Level FlightAware
02:53PM 55.1210 -12.4490 123° Southeast 513 590 35,000  Level FlightAware
02:53PM 55.0710 -12.3100 122° Southeast 511 588 35,000  Level FlightAware
02:54PM 55.0200 -12.1680 122° Southeast 509 586 35,000  Level FlightAware
02:55PM 54.9640 -12.0160 123° Southeast 508 585 35,000  Level FlightAware
02:56PM 54.8980 -11.8370 123° Southeast 508 585 35,000  Level FlightAware
02:57PM 54.8320 -11.6630 123° Southeast 509 586 35,000  Level FlightAware
02:57PM 54.7680 -11.4890 122° Southeast 508 585 35,000  Level FlightAware
02:58PM 54.7160 -11.3560 124° Southeast 508 585 35,000  Level FlightAware
02:59PM 54.6660 -11.2240 123° Southeast 505 581 35,000  Level FlightAware
02:59PM 54.6120 -11.0810 123° Southeast 513 590 35,000  Level FlightAware
03:00PM 54.5510 -10.9200 123° Southeast 512 589 35,000  Level FlightAware
03:01PM 54.4910 -10.7690 124° Southeast 521 600 35,000  Level FlightAware
03:02PM 54.4370 -10.6280 123° Southeast 523 602 35,000  Level FlightAware
03:02PM 54.3840 -10.4930 124° Southeast 523 602 35,000  Level FlightAware
03:03PM 54.3220 -10.3360 124° Southeast 523 602 35,000  Level FlightAware
03:04PM 54.2680 -10.2020 125° Southeast 522 601 35,000  Level FlightAware
03:04PM 54.2130 -10.0620 124° Southeast 521 600 35,000  Level FlightAware
03:05PM 54.1530 -9.9100 124° Southeast 519 597 35,000  Level FlightAware
03:06PM 54.1060 -9.7960 125° Southeast 517 595 35,000  Level FlightAware
03:06PM 54.0440 -9.6420 124° Southeast 514 592 35,000  Level FlightAware
03:07PM 53.9850 -9.4970 125° Southeast 511 588 35,000  Level FlightAware
03:08PM 53.9280 -9.3580 125° Southeast 511 588 35,000  Level FlightAware
03:09PM 53.8770 -9.2340 125° Southeast 511 588 35,000  Level FlightAware
03:09PM 53.8120 -9.0770 125° Southeast 508 585 35,000 -1,440 Level FlightAware
03:10PM 53.7793 -8.9966 125° Southeast 464 534 33,500 -2,400 Descending FlightAware UK
03:10PM 53.7552 -8.9385 125° Southeast 462 532 33,500 3,000 Level FlightAware UK
03:10PM 53.7450 -8.9160 125° Southeast 505 581 35,000  Climbing FlightAware
03:11PM 53.7147 -8.8415 125° Southeast 460 529 33,500 -2,520 Descending FlightAware UK
03:11PM 53.6905 -8.7836 125° Southeast 462 532 33,500 4,080 Level FlightAware UK
03:11PM 53.6870 -8.7780 125° Southeast 503 579 35,000  Climbing FlightAware
03:11PM 53.6580 -8.7070 125° Southeast 460 529 33,500 -2,400 Descending FlightAware UK
03:12PM 53.6338 -8.6497 125° Southeast 462 532 33,500 3,000 Level FlightAware UK
03:12PM 53.6200 -8.6180 125° Southeast 501 577 35,000  Climbing FlightAware
03:12PM 53.5934 -8.5546 125° Southeast 458 527 33,500 -2,520 Descending FlightAware UK
03:12PM 53.5692 -8.4980 126° Southeast 458 527 33,500 4,080 Level FlightAware UK
03:12PM 53.5680 -8.4980 126° Southeast 500 575 35,000  Climbing FlightAware
03:13PM 53.5367 -8.4216 126° Southeast 458 527 33,500 -2,400 Descending FlightAware UK
03:13PM 53.5127 -8.3647 125° Southeast 458 527 33,500 4,500 Level FlightAware UK
03:13PM 53.5130 -8.3690 125° Southeast 500 575 35,000  Climbing FlightAware
03:13PM 53.4886 -8.3081 125° Southeast 460 529 33,500 -2,700 Descending FlightAware UK
03:14PM 53.4644 -8.2516 126° Southeast 460 529 33,500 3,060 Level FlightAware UK
03:14PM 53.4520 -8.2240 126° Southeast 498 573 35,000  Climbing FlightAware
03:14PM 53.4238 -8.1579 126° Southeast 460 529 33,500 -2,460 Descending FlightAware UK
03:14PM 53.3995 -8.1016 126° Southeast 460 529 33,500 3,420 Level FlightAware UK
03:15PM 53.3930 -8.0860 126° Southeast 499 574 35,000  Climbing FlightAware
03:15PM 53.3672 -8.0267 126° Southeast 462 532 33,500 -2,700 Descending FlightAware UK
03:15PM 53.3429 -7.9705 126° Southeast 462 532 33,500 3,720 Level FlightAware UK
03:15PM 53.3390 -7.9620 126° Southeast 498 573 35,000  Climbing FlightAware
03:16PM 53.3105 -7.8958 126° Southeast 462 532 33,500  Descending FlightAware UK
03:16PM 53.2920 -7.8530 126° Southeast 497 572 35,000  Climbing FlightAware
03:16PM 53.2861 -7.8399 126° Southeast 458 527 33,500 -4,740 Descending FlightAware UK
03:16PM 53.2616 -7.7842 126° Southeast 460 529 33,500  Level FlightAware UK
03:16PM 53.2372 -7.7285 126° Southeast 458 527 33,500 2,880 Level FlightAware UK
03:17PM 53.2260 -7.7040 126° Southeast 498 573 35,000  Climbing FlightAware
03:17PM 53.1965 -7.6356 126° Southeast 460 529 33,500 -2,580 Descending FlightAware UK
03:17PM 53.1721 -7.5798 126° Southeast 462 532 33,500 3,900 Level FlightAware UK
03:17PM 53.1680 -7.5710 126° Southeast 499 574 35,000  Climbing FlightAware
03:18PM 53.1394 -7.5056 126° Southeast 460 529 33,500 -2,460 Descending FlightAware UK
03:18PM 53.1147 -7.4498 126° Southeast 464 534 33,500 4,260 Level FlightAware UK
03:18PM 53.1130 -7.4470 126° Southeast 501 577 35,000  Climbing FlightAware
03:18PM 53.0900 -7.3941 126° Southeast 464 534 33,500 -2,760 Descending FlightAware UK
03:19PM 53.0651 -7.3385 127° Southeast 464 534 33,500 3,000 Level FlightAware UK
03:19PM 53.0500 -7.3040 127° Southeast 503 579 35,000  Climbing FlightAware
03:19PM 53.0236 -7.2454 127° Southeast 468 539 33,500 -2,520 Descending FlightAware UK
03:19PM 52.9984 -7.1890 127° Southeast 464 534 33,500 4,080 Level FlightAware UK
03:19PM 52.9960 -7.1840 127° Southeast 501 577 35,000  Climbing FlightAware
03:20PM 52.9651 -7.1150 127° Southeast 466 536 33,500 -2,400 Descending FlightAware UK
03:20PM 52.9401 -7.0595 127° Southeast 466 536 33,500 4,500 Level FlightAware UK
03:20PM 52.9420 -7.0660 127° Southeast 502 578 35,000  Climbing FlightAware
03:20PM 52.9154 -7.0037 127° Southeast 464 534 33,500 -2,700 Descending FlightAware UK
03:21PM 52.8904 -6.9483 127° Southeast 464 534 33,500 3,060 Level FlightAware UK
03:21PM 52.8760 -6.9190 127° Southeast 502 578 35,000  Climbing FlightAware
03:21PM 52.8485 -6.8562 127° Southeast 468 539 33,500 -2,460 Descending FlightAware UK
03:21PM 52.8234 -6.8010 127° Southeast 468 539 33,500 3,420 Level FlightAware UK
03:22PM 52.8150 -6.7840 127° Southeast 502 578 35,000  Climbing FlightAware
03:22PM 52.7899 -6.7275 127° Southeast 470 541 33,500 -2,700 Descending FlightAware UK
03:22PM 52.7649 -6.6725 127° Southeast 472 543 33,500 4,680 Level FlightAware UK
03:22PM 52.7670 -6.6770 127° Southeast 501 577 35,000  Climbing FlightAware
03:22PM 52.7398 -6.6176 127° Southeast 470 541 33,500 -2,580 Descending FlightAware UK
03:23PM 52.7147 -6.5628 127° Southeast 472 543 33,500 3,180 Level FlightAware UK
03:23PM 52.7040 -6.5400 127° Southeast 500 575 35,000  Climbing FlightAware
03:23PM 52.6729 -6.4717 127° Southeast 468 539 33,500 -2,400 Descending FlightAware UK
03:24PM 52.6477 -6.4172 127° Southeast 472 543 33,500 3,600 Level FlightAware UK
03:24PM 52.6400 -6.4030 127° Southeast 500 575 35,000  Climbing FlightAware
03:24PM 52.6141 -6.3446 127° Southeast 472 543 33,500 -2,580 Descending FlightAware UK
03:24PM 52.5889 -6.2903 127° Southeast 476 548 33,500 3,900 Level FlightAware UK
03:24PM 52.5840 -6.2830 127° Southeast 499 574 35,000  Climbing FlightAware
03:25PM 52.5553 -6.2181 127° Southeast 472 543 33,500 -2,460 Descending FlightAware UK
03:25PM 52.5301 -6.1641 127° Southeast 474 545 33,500 4,260 Level FlightAware UK
03:25PM 52.5270 -6.1590 127° Southeast 496 571 35,000  Climbing FlightAware
03:25PM 52.5050 -6.1101 127° Southeast 472 543 33,500 -2,760 Descending FlightAware UK
03:26PM 52.4799 -6.0564 128° Southeast 470 541 33,500 3,000 Level FlightAware UK
03:26PM 52.4660 -6.0280 128° Southeast 496 571 35,000  Climbing FlightAware
03:26PM 52.4377 -5.9665 128° Southeast 468 539 33,500 -2,520 Descending FlightAware UK
03:26PM 52.4172 -5.9090 120° Southeast 470 541 33,500 4,080 Level FlightAware UK
03:26PM 52.4160 -5.9040 120° Southeast 491 565 35,000  Climbing FlightAware
03:27PM 52.3947 -5.8279 120° Southeast 470 541 33,500 -2,400 Descending FlightAware UK
03:27PM 52.3820 -5.7645 108° East 466 536 33,500 3,600 Level FlightAware UK
03:27PM 52.3790 -5.7530 108° East 488 562 35,000  Climbing FlightAware
03:27PM 52.3639 -5.6811 108° East 468 539 33,500 -2,580 Descending FlightAware UK
03:28PM 52.3508 -5.6182 109° East 468 539 33,500 3,900 Level FlightAware UK
03:28PM 52.3490 -5.6100 109° East 487 560 35,000  Climbing FlightAware
03:28PM 52.3332 -5.5346 109° East 466 536 33,500 -2,460 Descending FlightAware UK
03:28PM 52.3200 -5.4719 109° East 466 536 33,500 4,260 Level FlightAware UK
03:28PM 52.3200 -5.4700 109° East 488 562 35,000  Climbing FlightAware
03:29PM 52.3068 -5.4092 109° East 468 539 33,500 -2,760 Descending FlightAware UK
03:29PM 52.2936 -5.3463 109° East 468 539 33,500 3,000 Level FlightAware UK
03:29PM 52.2870 -5.3170 109° East 488 562 35,000  Climbing FlightAware
03:30PM 52.2715 -5.2419 109° East 468 539 33,500 -2,520 Descending FlightAware UK
03:30PM 52.2581 -5.1793 109° East 468 539 33,500 4,080 Level FlightAware UK
03:30PM 52.2570 -5.1740 109° East 487 560 35,000  Climbing FlightAware
03:30PM 52.2404 -5.0960 109° East 468 539 33,500 -2,400 Descending FlightAware UK
03:31PM 52.2270 -5.0336 109° East 466 536 33,500 3,600 Level FlightAware UK
03:31PM 52.2240 -5.0220 109° East 488 562 35,000  Climbing FlightAware
03:31PM 52.2088 -4.9499 109° East 470 541 33,500 -2,580 Descending FlightAware UK
03:31PM 52.1953 -4.8877 110° East 470 541 33,500 3,900 Level FlightAware UK
03:31PM 52.1940 -4.8830 110° East 487 560 35,000  Climbing FlightAware
03:32PM 52.1772 -4.8048 110° East 466 536 33,500 -2,460 Descending FlightAware UK
03:32PM 52.1636 -4.7427 110° East 466 536 33,500 3,420 Level FlightAware UK
03:32PM 52.1600 -4.7250 110° East 488 562 35,000  Climbing FlightAware
03:32PM 52.1455 -4.6598 110° East 468 539 33,500 -2,700 Descending FlightAware UK
03:33PM 52.1320 -4.5976 109° East 468 539 33,500 3,720 Level FlightAware UK
03:33PM 52.1290 -4.5870 109° East 487 560 35,000  Climbing FlightAware
03:33PM 52.1137 -4.5148 109° East 470 541 33,500  Descending FlightAware UK
03:33PM 52.1034 -4.4694 109° East 487 560 35,000  Climbing FlightAware ADS-B
03:34PM 52.0905 -4.4110 109° East 468 539 33,500 -2,580 Descending FlightAware UK
03:34PM 52.0767 -4.3491 110° East 468 539 33,500 2,460 Level FlightAware UK
03:34PM 52.0650 -4.2970 110° East 486 559 35,000 2,880 Climbing FlightAware
03:34PM 52.0530 -4.2427 110° East 487 560 35,000 -3,000 Level FlightAware ADS-B
03:35PM 52.0400 -4.1845 110° East 464 534 33,500  Descending FlightAware UK
03:35PM 52.0293 -4.1399 110° East 487 560 35,000  Climbing FlightAware ADS-B
03:35PM 52.0166 -4.0809 110° East 468 539 33,500  Descending FlightAware UK
03:35PM 52.0054 -4.0335 110° East 487 560 35,000  Climbing FlightAware ADS-B
03:36PM 51.9934 -3.9781 110° East 468 539 33,500  Descending FlightAware UK
03:36PM 51.9822 -3.9308 110° East 487 560 35,000  Climbing FlightAware ADS-B
03:36PM 51.9654 -3.8551 110° East 464 534 33,500  Descending FlightAware UK
03:36PM 51.9581 -3.8252 110° East 487 560 35,000  Climbing FlightAware ADS-B
03:37PM 51.9466 -3.7732 110° East 466 536 33,500  Descending FlightAware UK
03:37PM 51.9344 -3.7225 110° East 487 560 35,000  Climbing FlightAware ADS-B
03:37PM 51.9184 -3.6503 110° East 464 534 33,500  Descending FlightAware UK
03:37PM 51.9082 -3.6066 110° East 487 560 35,000  Climbing FlightAware ADS-B
03:38PM 51.8948 -3.5472 110° East 462 532 33,500  Descending FlightAware UK
03:38PM 51.8828 -3.4971 110° East 489 563 35,000  Climbing FlightAware ADS-B
03:38PM 51.8708 -3.4448 110° East 466 536 33,500  Descending FlightAware UK
03:38PM 51.8585 -3.3948 110° East 488 562 35,000  Climbing FlightAware ADS-B
03:39PM 51.8419 -3.3213 110° East 470 541 33,500  Descending FlightAware UK
03:39PM 51.8330 -3.2860 110° East 487 560 35,000 3,000 Climbing FlightAware
03:39PM 51.8187 -3.2247 111° Southeast 489 563 35,000 -2,580 Level FlightAware ADS-B
03:40PM 51.8036 -3.1580 111° Southeast 468 539 33,500  Descending FlightAware UK
03:40PM 51.7942 -3.1195 111° Southeast 487 560 35,000  Climbing FlightAware ADS-B
03:40PM 51.7796 -3.0570 111° Southeast 466 536 33,500  Descending FlightAware UK
03:40PM 51.7693 -3.0146 111° Southeast 486 559 35,000  Climbing FlightAware ADS-B
03:41PM 51.7554 -2.9540 111° Southeast 466 536 33,500  Descending FlightAware UK
03:41PM 51.7381 -2.8828 111° Southeast 486 559 35,000  Climbing FlightAware ADS-B
03:41PM 51.7215 -2.8123 111° Southeast 462 532 33,500  Descending FlightAware UK
03:42PM 51.7123 -2.7745 111° Southeast 488 562 35,000  Climbing FlightAware ADS-B
03:42PM 51.6970 -2.7110 111° Southeast 468 539 33,500  Descending FlightAware UK
03:42PM 51.6875 -2.6731 111° Southeast 488 562 35,000  Climbing FlightAware ADS-B
03:42PM 51.6724 -2.6089 111° Southeast 468 539 33,500  Descending FlightAware UK
03:43PM 51.6621 -2.5680 111° Southeast 488 562 35,000  Climbing FlightAware ADS-B
03:43PM 51.6481 -2.5080 111° Southeast 468 539 33,500  Descending FlightAware UK
03:43PM 51.6374 -2.4665 111° Southeast 488 562 35,000  Climbing FlightAware ADS-B
03:43PM 51.6234 -2.4059 111° Southeast 468 539 33,500  Descending FlightAware UK
03:44PM 51.6120 -2.3621 111° Southeast 489 563 35,000  Climbing FlightAware ADS-B
03:44PM 51.5935 -2.2846 111° Southeast 468 539 33,500  Descending FlightAware UK
03:44PM 51.5870 -2.2611 111° Southeast 488 562 35,000  Climbing FlightAware ADS-B
03:44PM 51.5686 -2.1835 111° Southeast 468 539 33,500  Descending FlightAware UK
03:45PM 51.5610 -2.1530 111° Southeast 489 563 35,000  Climbing FlightAware ADS-B
03:45PM 51.5485 -2.1020 111° Southeast 470 541 33,500  Descending FlightAware UK
03:45PM 51.5360 -2.0524 111° Southeast 487 560 35,000  Climbing FlightAware ADS-B
03:45PM 51.5185 -1.9811 111° Southeast 472 543 33,500  Descending FlightAware UK
03:46PM 51.5104 -1.9516 111° Southeast 487 560 35,000  Climbing FlightAware ADS-B
03:46PM 51.4935 -1.8807 111° Southeast 470 541 33,500  Descending FlightAware UK
03:46PM 51.4845 -1.8482 111° Southeast 487 560 35,000 2,160 Climbing FlightAware ADS-B
03:47PM 51.4594 -1.7478 112° Southeast 486 559 35,000  Level FlightAware ADS-B
03:47PM 51.4340 -1.6446 112° Southeast 485 558 35,000 -1,860 Level FlightAware ADS-B
03:47PM 51.4177 -1.5799 112° Southeast 472 543 33,500  Descending FlightAware UK
03:48PM 51.4084 -1.5449 112° Southeast 485 558 35,000  Climbing FlightAware ADS-B
03:48PM 51.3922 -1.4796 112° Southeast 470 541 33,500  Descending FlightAware UK
03:48PM 51.3828 -1.4451 112° Southeast 484 557 35,000  Climbing FlightAware ADS-B
03:48PM 51.3671 -1.3807 112° Southeast 470 541 33,500  Descending FlightAware UK
03:49PM 51.3568 -1.3425 112° Southeast 484 557 35,000  Climbing FlightAware ADS-B
03:49PM 51.3414 -1.2809 112° Southeast 474 545 33,500  Descending FlightAware UK
03:49PM 51.3313 -1.2435 112° Southeast 483 556 35,000 3,000 Climbing FlightAware ADS-B
03:49PM 51.3149 -1.1856 114° Southeast 480 552 35,000  Level FlightAware ADS-B
03:50PM 51.2973 -1.1363 120° Southeast 477 549 35,000  Level FlightAware ADS-B
03:50PM 51.2615 -1.0480 123° Southeast 472 543 35,000 -1,800 Level FlightAware ADS-B
03:51PM 51.2374 -0.9879 123° Southeast 478 550 33,500  Descending FlightAware UK
03:51PM 51.2251 -0.9619 123° Southeast 468 539 35,000  Climbing FlightAware ADS-B
03:51PM 51.2010 -0.9022 123° Southeast 474 545 33,500  Descending FlightAware UK
03:51PM 51.1881 -0.8733 123° Southeast 465 535 35,000  Climbing FlightAware ADS-B
03:52PM 51.1648 -0.8171 123° Southeast 470 541 33,500  Descending FlightAware UK
03:52PM 51.1509 -0.7857 123° Southeast 465 535 35,000  Climbing FlightAware ADS-B
03:52PM 51.1288 -0.7322 123° Southeast 468 539 33,500  Descending FlightAware UK
03:52PM 51.1149 -0.7012 123° Southeast 462 532 35,000  Climbing FlightAware ADS-B
03:53PM 51.0927 -0.6471 123° Southeast 464 534 33,500  Descending FlightAware UK
03:53PM 51.0783 -0.6139 123° Southeast 462 532 35,000  Climbing FlightAware ADS-B
03:53PM 51.0569 -0.5630 123° Southeast 466 536 33,500  Descending FlightAware UK
03:53PM 51.0422 -0.5300 123° Southeast 460 529 35,000  Climbing FlightAware ADS-B
03:54PM 51.0137 -0.4619 123° Southeast 466 536 33,500  Descending FlightAware UK
03:54PM 51.0041 -0.4407 123° Southeast 458 527 35,000  Climbing FlightAware ADS-B
03:54PM 50.9781 -0.3786 123° Southeast 462 532 33,500  Descending FlightAware UK
03:54PM 50.9679 -0.3577 123° Southeast 458 527 35,000  Climbing FlightAware ADS-B
03:55PM 50.9493 -0.3118 123° Southeast 460 529 33,500  Descending FlightAware UK
03:55PM 50.9321 -0.2745 123° Southeast 458 527 35,000  Climbing FlightAware ADS-B
03:55PM 50.9136 -0.2289 123° Southeast 462 532 33,500 -420 Descending FlightAware UK
03:55PM 50.8946 -0.1862 123° Southeast 456 525 34,800 360 Climbing FlightAware ADS-B
03:56PM 50.8579 -0.1012 124° Southeast 452 520 33,800 -3,840 Descending FlightAware ADS-B
03:56PM 50.8356 -0.0486 124° Southeast 458 527 31,600 -1,920 Descending FlightAware UK
03:56PM 50.8206 -0.0151 124° Southeast 442 509 32,800 -1,800 Climbing FlightAware ADS-B
03:57PM 50.8010 0.0303 124° Southeast 458 527 30,700 -2,160 Descending FlightAware UK
03:57PM 50.7820 0.0712 124° Southeast 432 497 31,600 660 Climbing FlightAware ADS-B
03:57PM 50.7608 0.1142 128° Southeast 416 479 31,100 -1,800 Descending FlightAware ADS-B
03:57PM 50.7470 0.1355 136° Southeast 404 465 30,800 -4,860 Descending FlightAware ADS-B
03:58PM 50.7249 0.1674 136° Southeast 444 511 29,000 -1,500 Descending FlightAware UK
03:58PM 50.7037 0.1926 136° Southeast 387 445 30,000 720 Climbing FlightAware ADS-B
03:58PM 50.6603 0.2483 141° Southeast 373 429 29,600 -2,640 Descending FlightAware ADS-B
03:59PM 50.6349 0.2816 141° Southeast 428 493 27,800 -960 Descending FlightAware UK
03:59PM 50.6182 0.3023 141° Southeast 363 418 29,100 -840 Climbing FlightAware ADS-B
03:59PM 50.5956 0.3318 141° Southeast 420 483 27,400 -780 Descending FlightAware UK
03:59PM 50.5781 0.3533 141° Southeast 358 412 28,700 1,500 Climbing FlightAware ADS-B
04:00PM 50.5442 0.3947 142° Southeast 352 405 28,400 -960 Descending FlightAware ADS-B
04:00PM 50.5278 0.4136 144° Southeast 346 398 28,100 -4,140 Descending FlightAware ADS-B
04:00PM 50.5016 0.4411 144° Southeast 410 472 26,200 -1,020 Descending FlightAware UK
04:01PM 50.4871 0.4543 144° Southeast 343 395 27,600 -1,020 Climbing FlightAware ADS-B
04:01PM 50.4614 0.4802 144° Southeast 410 472 25,700 -1,020 Descending FlightAware UK
04:01PM 50.4454 0.4942 144° Southeast 343 395 27,100 -1,020 Climbing FlightAware ADS-B
04:01PM 50.4206 0.5184 144° Southeast 410 472 25,200 -1,080 Descending FlightAware UK
04:02PM 50.3976 0.5390 144° Southeast 340 391 26,500 -1,020 Climbing FlightAware ADS-B
04:02PM 50.3720 0.5642 144° Southeast 404 465 24,600 -900 Descending FlightAware UK
04:02PM 50.3521 0.5823 144° Southeast 340 391 26,000 -240 Climbing FlightAware ADS-B
04:03PM 50.3317 0.6023 144° Southeast 400 460 24,500 -2,340 Descending FlightAware UK
04:03PM 50.2998 0.6329 149° Southeast 402 463 24,500  Level FlightAware UK
04:03PM 50.2759 0.6560 148° Southeast 402 463 24,500 2,040 Level FlightAware UK
04:04PM 50.2580 0.6730 148° Southeast 338 389 25,700 -2,040 Climbing FlightAware
04:04PM 50.2196 0.7102 148° Southeast 390 449 23,100 -2,040 Descending FlightAware UK
04:04PM 50.2210 0.7080 148° Southeast 337 388 24,700 -2,040 Climbing FlightAware
04:04PM 50.1875 0.7407 148° Southeast 384 442 22,300 -1,440 Descending FlightAware UK
04:05PM 50.1540 0.7720 148° Southeast 342 394 23,500 -900 Climbing FlightAware
04:05PM 50.1214 0.8040 148° Southeast 386 444 21,600 -3,960 Descending FlightAware UK
04:05PM 50.0964 0.8276 149° Southeast 384 442 21,200 2,520 Descending FlightAware UK
04:06PM 50.0960 0.8280 149° Southeast 345 397 22,800 -960 Climbing FlightAware
04:06PM 50.0627 0.8596 149° Southeast 382 440 20,800 -4,320 Descending FlightAware UK
04:06PM 50.0383 0.8828 149° Southeast 380 437 20,500 2,880 Descending FlightAware UK
04:06PM 50.0360 0.8850 149° Southeast 343 395 22,000 -1,020 Climbing FlightAware
04:07PM 50.0049 0.9151 149° Southeast 378 435 20,100 -900 Descending FlightAware UK
04:07PM 49.9830 0.9340 149° Southeast 338 389 21,400 -1,020 Climbing FlightAware
04:07PM 49.9473 0.9693 149° Southeast 372 428 19,400 -1,080 Descending FlightAware UK
04:08PM 49.9210 0.9930 149° Southeast 343 395 20,600 -1,020 Climbing FlightAware
04:08PM 49.8904 1.0227 149° Southeast 370 426 18,700 -1,080 Descending FlightAware UK
04:08PM 49.8660 1.0450 149° Southeast 340 391 19,900 -1,020 Climbing FlightAware
04:09PM 49.8257 1.0838 149° Southeast 364 419 17,900 -3,300 Descending FlightAware UK
04:09PM 49.8014 1.1064 149° Southeast 364 419 17,600 3,660 Descending FlightAware UK
04:09PM 49.8050 1.1020 149° Southeast 340 391 19,200 -1,020 Climbing FlightAware
04:09PM 49.7771 1.1292 149° Southeast 360 414 17,300 -1,080 Descending FlightAware UK
04:10PM 49.7510 1.1530 149° Southeast 338 389 18,500 -1,020 Climbing FlightAware
04:10PM 49.7206 1.1820 149° Southeast 358 412 16,600 -3,780 Descending FlightAware UK
04:10PM 49.6964 1.2045 149° Southeast 356 410 16,300 3,360 Descending FlightAware UK
04:10PM 49.6970 1.2030 149° Southeast 337 388 17,900 -1,020 Climbing FlightAware
04:11PM 49.6644 1.2345 149° Southeast 354 407 15,900 -3,780 Descending FlightAware UK
04:11PM 49.6404 1.2569 149° Southeast 350 403 15,600 2,760 Descending FlightAware UK
04:11PM 49.6370 1.2590 149° Southeast 336 387 17,100 -1,020 Climbing FlightAware
04:11PM 49.6084 1.2861 149° Southeast 352 405 15,200 -4,020 Descending FlightAware UK
04:12PM 49.5846 1.3081 149° Southeast 350 403 14,900 3,240 Descending FlightAware UK
04:12PM 49.5850 1.3070 149° Southeast 337 388 16,500 -1,020 Climbing FlightAware
04:12PM 49.5441 1.3461 149° Southeast 346 398 14,400 -1,080 Descending FlightAware UK
04:13PM 49.5310 1.3580 149° Southeast 328 377 15,800 3,000 Climbing FlightAware
04:13PM 49.5129 1.3740 150° Southeast 336 387 15,600 -4,140 Descending FlightAware ADS-B
04:13PM 49.4801 1.4054 150° Southeast 342 394 13,600 -960 Descending FlightAware UK
04:13PM 49.4697 1.4148 150° Southeast 340 391 15,100 -780 Climbing FlightAware ADS-B
04:13PM 49.4478 1.4351 150° Southeast 342 394 13,300 -1,140 Descending FlightAware UK
04:14PM 49.4258 1.4545 150° Southeast 337 388 14,500 -1,020 Climbing FlightAware ADS-B
04:14PM 49.3995 1.4796 150° Southeast 338 389 12,700 -3,360 Descending FlightAware UK
04:14PM 49.3754 1.5015 149° Southeast 336 387 12,400 1,980 Descending FlightAware UK
04:15PM 49.3601 1.5150 149° Southeast 337 388 13,700 -1,020 Climbing FlightAware ADS-B
04:15PM 49.3369 1.5364 149° Southeast 334 384 11,900 -900 Descending FlightAware UK
04:15PM 49.3266 1.5455 149° Southeast 319 367 13,300 5,160 Climbing FlightAware ADS-B
04:15PM 49.3195 1.5534 144° Southeast 322 371 13,200 -720 Descending FlightAware ADS-B
04:15PM 49.3160 1.5579 140° Southeast 324 373 13,200 -1,020 Level FlightAware ADS-B
04:15PM 49.3126 1.5648 127° Southeast 328 377 13,100 -1,740 Descending FlightAware ADS-B
04:15PM 49.3093 1.5702 133° Southeast 330 380 13,000 -780 Descending FlightAware ADS-B
04:15PM 49.3055 1.5803 120° Southeast 335 386 13,000 -720 Level FlightAware ADS-B
04:15PM 49.3022 1.5913 115° Southeast 340 391 12,900 -720 Descending FlightAware ADS-B
04:16PM 49.2963 1.6420 100° East 352 405 12,700 -3,180 Descending FlightAware ADS-B
04:16PM 49.2938 1.6850 100° East 332 382 10,900 -1,020 Descending FlightAware UK
04:16PM 49.2928 1.7181 100° East 345 397 12,200 -840 Climbing FlightAware ADS-B
04:17PM 49.2908 1.7587 100° East 324 373 10,500 -360 Descending FlightAware UK
04:17PM 49.2898 1.7982 100° East 342 394 12,000 1,800 Climbing FlightAware ADS-B
04:17PM 49.2868 1.8731 93° East 342 394 12,000  Level FlightAware ADS-B
04:18PM 49.2834 1.9482 94° East 344 396 12,000 -1,920 Level FlightAware ADS-B
04:18PM 49.2813 1.9918 94° East 326 375 10,500  Descending FlightAware UK
04:19PM 49.2789 2.0382 94° East 344 396 12,000  Climbing FlightAware ADS-B
04:19PM 49.2767 2.0789 94° East 324 373 10,500  Descending FlightAware UK
04:19PM 49.2760 2.0991 94° East 344 396 12,000 2,220 Climbing FlightAware ADS-B
04:19PM 49.2723 2.1739 94° East 335 386 12,000  Level FlightAware ADS-B
04:20PM 49.2691 2.2411 94° East 304 350 12,000 -1,800 Level FlightAware ADS-B
04:20PM 49.2681 2.2876 94° East 274 315 10,500  Descending FlightAware UK
04:20PM 49.2660 2.3042 94° East 280 322 12,000 2,040 Climbing FlightAware ADS-B
04:21PM 49.2628 2.3677 94° East 281 323 12,000  Level FlightAware ADS-B
04:22PM 49.2595 2.4293 95° East 283 326 12,000 -240 Level FlightAware ADS-B
04:22PM 49.2563 2.4930 94° East 280 322 11,800 -780 Descending FlightAware ADS-B
04:22PM 49.2541 2.5225 96° East 281 323 11,400 -1,620 Descending FlightAware ADS-B
04:23PM 49.2476 2.5807 100° East 276 318 10,600 -1,440 Descending FlightAware ADS-B
04:23PM 49.2410 2.6373 100° East 268 308 10,000 -1,320 Descending FlightAware ADS-B
04:24PM 49.2376 2.6667 100° East 264 304 9,600 -1,500 Descending FlightAware ADS-B
04:24PM 49.2341 2.6958 100° East 261 300 9,200 -1,560 Descending FlightAware ADS-B
04:24PM 49.2307 2.7231 101° East 259 298 8,800 -1,560 Descending FlightAware ADS-B
04:24PM 49.2271 2.7518 101° East 257 296 8,400 -1,560 Descending FlightAware ADS-B
04:25PM 49.2225 2.7927 100° East 256 295 7,800 -1,500 Descending FlightAware ADS-B
04:25PM 49.2150 2.8576 100° East 256 295 6,900 -1,620 Descending FlightAware ADS-B
04:26PM 49.2122 2.8780 102° East 247 284 6,500 -1,920 Descending FlightAware ADS-B
04:26PM 49.2098 2.8844 120° Southeast 249 287 6,400 -1,380 Descending FlightAware ADS-B
04:26PM 49.2072 2.8902 125° Southeast 249 287 6,300 -1,740 Descending FlightAware ADS-B
04:26PM 49.2047 2.8955 126° Southeast 250 288 6,200 -1,740 Descending FlightAware ADS-B
04:26PM 49.2013 2.8990 146° Southeast 250 288 6,100 -1,740 Descending FlightAware ADS-B
04:26PM 49.1983 2.9021 146° Southeast 249 287 6,000 -2,040 Descending FlightAware ADS-B
04:26PM 49.1952 2.9046 152° Southeast 249 287 5,900 -2,580 Descending FlightAware ADS-B
04:26PM 49.1909 2.9072 158° South 249 287 5,700 -2,280 Descending FlightAware ADS-B
04:26PM 49.1862 2.9092 164° South 249 287 5,600 -1,740 Descending FlightAware ADS-B
04:26PM 49.1823 2.9096 176° South 249 287 5,500 -1,740 Descending FlightAware ADS-B
04:26PM 49.1776 2.9093 182° South 250 288 5,400 -1,620 Descending FlightAware ADS-B
04:26PM 49.1658 2.9042 196° South 251 289 5,100 -1,740 Descending FlightAware ADS-B
04:26PM 49.1628 2.9014 210° Southwest 251 289 5,000 -1,440 Descending FlightAware ADS-B
04:27PM 49.1530 2.8901 217° Southwest 257 296 4,800 -1,320 Descending FlightAware ADS-B
04:27PM 49.1486 2.8867 207° Southwest 261 300 4,700 -2,040 Descending FlightAware ADS-B
04:27PM 49.1432 2.8841 197° South 260 299 4,500 -1,500 Descending FlightAware ADS-B
04:27PM 49.1396 2.8826 195° South 261 300 4,500 -1,020 Level FlightAware ADS-B
04:27PM 49.1358 2.8821 185° South 261 300 4,400 -1,380 Descending FlightAware ADS-B
04:27PM 49.1289 2.8824 178° South 258 297 4,300 -1,140 Descending FlightAware ADS-B
04:27PM 49.1229 2.8847 166° South 258 297 4,200 -1,380 Descending FlightAware ADS-B
04:27PM 49.1189 2.8865 164° South 256 295 4,100 -660 Descending FlightAware ADS-B
04:27PM 49.1024 2.8952 161° South 252 290 4,000 -240 Descending FlightAware ADS-B
04:28PM 49.0854 2.9035 162° South 253 291 4,000  Level FlightAware ADS-B
04:28PM 49.0540 2.9193 162° South 254 292 4,000  Level FlightAware ADS-B
04:28PM 49.0421 2.9244 164° South 252 290 4,000  Level FlightAware ADS-B
04:28PM 49.0335 2.9256 175° South 251 289 4,000  Level FlightAware ADS-B
04:28PM 49.0248 2.9231 191° South 252 290 4,000  Level FlightAware ADS-B
04:29PM 49.0163 2.9170 205° Southwest 250 288 4,000  Level FlightAware ADS-B
04:29PM 49.0130 2.9127 220° Southwest 244 281 4,000  Level FlightAware ADS-B
04:29PM 49.0100 2.9078 227° Southwest 238 274 4,000  Level FlightAware ADS-B
04:29PM 49.0078 2.9036 232° Southwest 231 266 4,000  Level FlightAware ADS-B
04:29PM 49.0059 2.8949 252° West 221 254 4,000  Level FlightAware ADS-B
04:29PM 49.0055 2.8906 262° West 209 241 4,000  Level FlightAware ADS-B
04:29PM 49.0057 2.8850 273° West 198 228 4,000 720 Level FlightAware ADS-B
04:29PM 49.0064 2.8798 282° West 189 217 4,100 540 Climbing FlightAware ADS-B
04:29PM 49.0081 2.8711 287° West 183 211 4,100 -780 Level FlightAware ADS-B
04:30PM 49.0073 2.8372 268° West 184 212 3,700 -1,020 Descending FlightAware ADS-B
04:30PM 49.0065 2.8301 260° West 209 241 3,600 -2,040 Descending FlightAware ADS-B
04:30PM 49.0058 2.8196 264° West 213 245 3,300 -1,680 Descending FlightAware ADS-B
04:30PM 49.0050 2.7978 267° West 200 230 3,000 -1,200 Descending FlightAware ADS-B
04:30PM 49.0040 2.7761 266° West 190 219 2,700 -1,080 Descending FlightAware ADS-B
04:31PM 49.0024 2.7454 265° West 171 197 2,300 -1,080 Descending FlightAware ADS-B
04:31PM 49.0015 2.7283 265° West 160 184 2,000 -1,020 Descending FlightAware ADS-B
04:31PM 49.0010 2.7182 266° West 161 185 1,900 -900 Descending FlightAware ADS-B
04:31PM 49.0002 2.7047 265° West 160 184 1,700 -780 Descending FlightAware ADS-B
04:32PM 48.9992 2.6846 266° West 144 166 1,500 -720 Descending FlightAware ADS-B
04:32PM 48.9989 2.6786 266° West 143 165 1,400 -840 Descending FlightAware ADS-B
04:32PM 48.9984 2.6694 265° West 144 166 1,300 -840 Descending FlightAware ADS-B
04:32PM 48.9977 2.6563 265° West 142 163 1,100 -840 Descending FlightAware ADS-B
04:32PM 48.9972 2.6464 266° West 141 162 1,000 -840 Descending FlightAware ADS-B
04:32PM 48.9969 2.6414 265° West 140 161 900 -960 Descending FlightAware ADS-B
04:32PM 48.9964 2.6335 264° West 141 162 800 -960 Descending FlightAware ADS-B
04:33PM 48.9959 2.6228 266° West 139 160 600 -720 Descending FlightAware ADS-B
04:33PM 48.9951 2.6071 266° West 139 160 500 -420 Descending FlightAware ADS-B